sensor_id;sensor_type;location;lat;lon;timestamp;P1;durP1;ratioP1;P2;durP2;ratioP2
54515;SDS011;40422;45.892;4.738;2023-10-19T03:01:22;1.33;;;0.80;;
54515;SDS011;40422;45.892;4.738;2023-10-19T03:03:52;1.00;;;0.70;;
54515;SDS011;40422;45.892;4.738;2023-10-19T03:06:22;1.70;;;0.80;;
54515;SDS011;40422;45.892;4.738;2023-10-19T03:08:48;0.98;;;0.70;;
54515;SDS011;40422;45.892;4.738;2023-10-19T03:11:26;1.70;;;0.68;;
54515;SDS011;40422;45.892;4.738;2023-10-19T03:13:53;1.00;;;0.70;;
54515;SDS011;40422;45.892;4.738;2023-10-19T03:16:19;1.65;;;0.80;;
54515;SDS011;40422;45.892;4.738;2023-10-19T03:18:47;1.73;;;0.70;;
54515;SDS011;40422;45.892;4.738;2023-10-19T03:21:12;1.00;;;0.80;;
54515;SDS011;40422;45.892;4.738;2023-10-19T03:23:38;1.63;;;0.80;;
54515;SDS011;40422;45.892;4.738;2023-10-19T03:26:07;1.38;;;0.80;;
54515;SDS011;40422;45.892;4.738;2023-10-19T03:28:55;1.45;;;0.77;;
54515;SDS011;40422;45.892;4.738;2023-10-19T03:31:28;1.17;;;0.80;;
54515;SDS011;40422;45.892;4.738;2023-10-19T03:33:54;0.77;;;0.70;;
54515;SDS011;40422;45.892;4.738;2023-10-19T03:36:22;1.40;;;0.85;;
54515;SDS011;40422;45.892;4.738;2023-10-19T03:38:48;1.40;;;0.80;;
54515;SDS011;40422;45.892;4.738;2023-10-19T03:41:16;1.17;;;0.73;;
54515;SDS011;40422;45.892;4.738;2023-10-19T03:43:48;1.13;;;0.70;;
54515;SDS011;40422;45.892;4.738;2023-10-19T03:46:16;1.13;;;0.70;;
54515;SDS011;40422;45.892;4.738;2023-10-19T03:48:56;2.35;;;1.00;;
54515;SDS011;40422;45.892;4.738;2023-10-19T03:51:29;1.75;;;1.00;;
54515;SDS011;40422;45.892;4.738;2023-10-19T03:54:05;1.50;;;0.90;;
54515;SDS011;40422;45.892;4.738;2023-10-19T03:56:44;1.67;;;0.90;;
54515;SDS011;40422;45.892;4.738;2023-10-19T03:59:09;1.65;;;1.00;;
54515;SDS011;40422;45.892;4.738;2023-10-19T04:01:35;4.38;;;1.05;;
54515;SDS011;40422;45.892;4.738;2023-10-19T04:04:01;2.25;;;0.90;;
54515;SDS011;40422;45.892;4.738;2023-10-19T04:06:26;2.33;;;1.00;;
54515;SDS011;40422;45.892;4.738;2023-10-19T04:08:52;1.48;;;0.70;;
54515;SDS011;40422;45.892;4.738;2023-10-19T04:11:18;1.23;;;0.82;;
54515;SDS011;40422;45.892;4.738;2023-10-19T04:13:47;1.00;;;0.60;;
54515;SDS011;40422;45.892;4.738;2023-10-19T04:16:17;0.55;;;0.52;;
54515;SDS011;40422;45.892;4.738;2023-10-19T04:18:44;0.90;;;0.60;;
54515;SDS011;40422;45.892;4.738;2023-10-19T04:21:09;0.77;;;0.57;;
54515;SDS011;40422;45.892;4.738;2023-10-19T04:23:35;1.40;;;0.60;;
54515;SDS011;40422;45.892;4.738;2023-10-19T04:26:01;2.33;;;0.70;;
54515;SDS011;40422;45.892;4.738;2023-10-19T04:28:35;2.38;;;0.73;;
54515;SDS011;40422;45.892;4.738;2023-10-19T04:31:06;1.55;;;0.70;;
54515;SDS011;40422;45.892;4.738;2023-10-19T04:33:32;3.00;;;0.65;;
54515;SDS011;40422;45.892;4.738;2023-10-19T04:36:01;1.02;;;0.80;;
54515;SDS011;40422;45.892;4.738;2023-10-19T04:38:27;0.93;;;0.80;;
54515;SDS011;40422;45.892;4.738;2023-10-19T04:41:02;0.95;;;0.70;;
54515;SDS011;40422;45.892;4.738;2023-10-19T04:43:32;1.40;;;0.70;;
54515;SDS011;40422;45.892;4.738;2023-10-19T04:45:59;2.70;;;0.60;;
54515;SDS011;40422;45.892;4.738;2023-10-19T04:48:26;1.13;;;0.70;;
54515;SDS011;40422;45.892;4.738;2023-10-19T04:50:51;1.67;;;0.82;;
54515;SDS011;40422;45.892;4.738;2023-10-19T04:53:17;0.85;;;0.70;;
54515;SDS011;40422;45.892;4.738;2023-10-19T04:55:42;0.85;;;0.65;;
54515;SDS011;40422;45.892;4.738;2023-10-19T04:58:10;1.25;;;0.73;;
54515;SDS011;40422;45.892;4.738;2023-10-19T05:00:36;0.50;;;0.50;;
54515;SDS011;40422;45.892;4.738;2023-10-19T05:03:01;1.75;;;0.73;;
54515;SDS011;40422;45.892;4.738;2023-10-19T05:05:27;0.52;;;0.50;;
54515;SDS011;40422;45.892;4.738;2023-10-19T05:07:53;0.73;;;0.60;;
54515;SDS011;40422;45.892;4.738;2023-10-19T05:10:18;1.10;;;0.70;;
54515;SDS011;40422;45.892;4.738;2023-10-19T05:12:44;1.23;;;0.80;;
54515;SDS011;40422;45.892;4.738;2023-10-19T05:15:10;2.45;;;0.93;;
54515;SDS011;40422;45.892;4.738;2023-10-19T05:17:36;1.63;;;0.85;;
54515;SDS011;40422;45.892;4.738;2023-10-19T05:20:01;1.00;;;0.50;;
54515;SDS011;40422;45.892;4.738;2023-10-19T05:22:30;3.15;;;0.90;;
54515;SDS011;40422;45.892;4.738;2023-10-19T05:24:58;2.35;;;0.82;;
54515;SDS011;40422;45.892;4.738;2023-10-19T05:27:23;2.53;;;0.80;;
54515;SDS011;40422;45.892;4.738;2023-10-19T05:29:50;2.28;;;0.80;;
54515;SDS011;40422;45.892;4.738;2023-10-19T05:32:16;2.45;;;0.88;;
54515;SDS011;40422;45.892;4.738;2023-10-19T05:34:42;3.00;;;0.88;;
54515;SDS011;40422;45.892;4.738;2023-10-19T05:37:07;1.58;;;0.80;;
54515;SDS011;40422;45.892;4.738;2023-10-19T05:39:34;1.50;;;0.82;;
54515;SDS011;40422;45.892;4.738;2023-10-19T05:42:01;2.28;;;0.70;;
54515;SDS011;40422;45.892;4.738;2023-10-19T05:44:30;0.90;;;0.65;;
54515;SDS011;40422;45.892;4.738;2023-10-19T05:46:55;1.30;;;0.80;;
54515;SDS011;40422;45.892;4.738;2023-10-19T05:49:23;1.40;;;0.65;;
54515;SDS011;40422;45.892;4.738;2023-10-19T05:51:49;1.65;;;0.80;;
54515;SDS011;40422;45.892;4.738;2023-10-19T05:54:15;1.58;;;0.80;;
54515;SDS011;40422;45.892;4.738;2023-10-19T05:56:42;1.33;;;0.90;;
54515;SDS011;40422;45.892;4.738;2023-10-19T05:59:07;1.60;;;0.70;;
54515;SDS011;40422;45.892;4.738;2023-10-19T06:01:35;1.55;;;0.70;;
54515;SDS011;40422;45.892;4.738;2023-10-19T06:04:02;1.20;;;0.65;;
54515;SDS011;40422;45.892;4.738;2023-10-19T06:06:28;0.63;;;0.57;;
54515;SDS011;40422;45.892;4.738;2023-10-19T06:08:53;0.70;;;0.60;;
54515;SDS011;40422;45.892;4.738;2023-10-19T06:11:20;0.75;;;0.50;;
54515;SDS011;40422;45.892;4.738;2023-10-19T06:13:46;1.40;;;0.30;;
54515;SDS011;40422;45.892;4.738;2023-10-19T06:16:12;0.52;;;0.50;;
54515;SDS011;40422;45.892;4.738;2023-10-19T06:18:39;0.50;;;0.30;;
54515;SDS011;40422;45.892;4.738;2023-10-19T06:21:05;1.10;;;0.30;;
54515;SDS011;40422;45.892;4.738;2023-10-19T06:23:31;0.35;;;0.30;;
54515;SDS011;40422;45.892;4.738;2023-10-19T06:25:56;1.17;;;0.50;;
54515;SDS011;40422;45.892;4.738;2023-10-19T06:28:22;1.02;;;0.40;;
54515;SDS011;40422;45.892;4.738;2023-10-19T06:30:48;1.20;;;0.70;;
54515;SDS011;40422;45.892;4.738;2023-10-19T06:33:15;0.63;;;0.45;;
54515;SDS011;40422;45.892;4.738;2023-10-19T06:35:41;1.17;;;0.60;;
54515;SDS011;40422;45.892;4.738;2023-10-19T06:38:07;3.92;;;0.88;;
54515;SDS011;40422;45.892;4.738;2023-10-19T06:40:34;2.58;;;0.95;;
54515;SDS011;40422;45.892;4.738;2023-10-19T06:43:03;2.70;;;0.80;;
54515;SDS011;40422;45.892;4.738;2023-10-19T06:45:30;3.75;;;1.05;;
54515;SDS011;40422;45.892;4.738;2023-10-19T06:47:57;3.13;;;0.70;;
54515;SDS011;40422;45.892;4.738;2023-10-19T06:50:25;0.88;;;0.45;;
54515;SDS011;40422;45.892;4.738;2023-10-19T06:52:51;3.55;;;0.90;;
54515;SDS011;40422;45.892;4.738;2023-10-19T06:55:19;1.85;;;0.80;;
54515;SDS011;40422;45.892;4.738;2023-10-19T06:57:47;3.38;;;0.77;;
54515;SDS011;40422;45.892;4.738;2023-10-19T07:00:24;3.70;;;0.77;;
54515;SDS011;40422;45.892;4.738;2023-10-19T07:02:54;3.28;;;1.05;;
54515;SDS011;40422;45.892;4.738;2023-10-19T07:05:21;1.55;;;0.80;;
54515;SDS011;40422;45.892;4.738;2023-10-19T07:07:48;1.80;;;0.80;;
54515;SDS011;40422;45.892;4.738;2023-10-19T07:10:16;1.45;;;0.90;;
54515;SDS011;40422;45.892;4.738;2023-10-19T07:12:45;2.05;;;1.13;;
54515;SDS011;40422;45.892;4.738;2023-10-19T07:15:14;1.45;;;0.88;;
54515;SDS011;40422;45.892;4.738;2023-10-19T07:17:43;2.13;;;1.00;;
54515;SDS011;40422;45.892;4.738;2023-10-19T07:20:10;3.30;;;1.10;;
54515;SDS011;40422;45.892;4.738;2023-10-19T07:22:55;3.30;;;1.30;;
54515;SDS011;40422;45.892;4.738;2023-10-19T07:25:31;2.40;;;0.93;;
54515;SDS011;40422;45.892;4.738;2023-10-19T07:28:07;1.67;;;0.80;;
54515;SDS011;40422;45.892;4.738;2023-10-19T07:30:34;2.38;;;1.00;;
54515;SDS011;40422;45.892;4.738;2023-10-19T07:33:00;3.10;;;1.17;;
54515;SDS011;40422;45.892;4.738;2023-10-19T07:35:28;2.15;;;1.05;;
54515;SDS011;40422;45.892;4.738;2023-10-19T07:37:56;1.98;;;0.90;;
54515;SDS011;40422;45.892;4.738;2023-10-19T07:40:21;2.45;;;1.20;;
54515;SDS011;40422;45.892;4.738;2023-10-19T07:42:49;3.22;;;1.02;;
54515;SDS011;40422;45.892;4.738;2023-10-19T07:45:17;2.05;;;1.00;;
54515;SDS011;40422;45.892;4.738;2023-10-19T07:47:43;3.33;;;1.42;;
54515;SDS011;40422;45.892;4.738;2023-10-19T07:50:10;2.38;;;1.27;;
54515;SDS011;40422;45.892;4.738;2023-10-19T07:52:44;3.65;;;1.55;;
54515;SDS011;40422;45.892;4.738;2023-10-19T07:55:12;3.03;;;1.20;;
54515;SDS011;40422;45.892;4.738;2023-10-19T07:57:39;3.92;;;1.25;;
54515;SDS011;40422;45.892;4.738;2023-10-19T08:00:07;4.13;;;1.27;;
54515;SDS011;40422;45.892;4.738;2023-10-19T08:02:35;4.47;;;1.33;;
54515;SDS011;40422;45.892;4.738;2023-10-19T08:05:01;2.40;;;1.20;;
54515;SDS011;40422;45.892;4.738;2023-10-19T08:07:28;3.47;;;1.13;;
54515;SDS011;40422;45.892;4.738;2023-10-19T08:09:54;2.22;;;1.13;;
54515;SDS011;40422;45.892;4.738;2023-10-19T08:12:20;1.58;;;1.08;;
54515;SDS011;40422;45.892;4.738;2023-10-19T08:14:47;3.08;;;1.00;;
54515;SDS011;40422;45.892;4.738;2023-10-19T08:17:13;1.70;;;0.90;;
54515;SDS011;40422;45.892;4.738;2023-10-19T08:19:39;1.58;;;0.90;;
54515;SDS011;40422;45.892;4.738;2023-10-19T08:22:07;2.17;;;0.80;;
54515;SDS011;40422;45.892;4.738;2023-10-19T08:24:32;1.30;;;0.93;;
54515;SDS011;40422;45.892;4.738;2023-10-19T08:27:00;2.30;;;1.02;;
54515;SDS011;40422;45.892;4.738;2023-10-19T08:29:26;1.85;;;0.90;;
54515;SDS011;40422;45.892;4.738;2023-10-19T08:31:52;3.15;;;0.88;;
54515;SDS011;40422;45.892;4.738;2023-10-19T08:34:17;3.97;;;0.90;;
54515;SDS011;40422;45.892;4.738;2023-10-19T08:36:45;1.08;;;0.68;;
54515;SDS011;40422;45.892;4.738;2023-10-19T08:39:11;2.15;;;0.80;;
54515;SDS011;40422;45.892;4.738;2023-10-19T08:41:38;3.20;;;0.80;;
54515;SDS011;40422;45.892;4.738;2023-10-19T08:44:06;2.72;;;1.00;;
54515;SDS011;40422;45.892;4.738;2023-10-19T08:46:37;1.42;;;0.80;;
54515;SDS011;40422;45.892;4.738;2023-10-19T08:49:08;2.50;;;0.85;;
54515;SDS011;40422;45.892;4.738;2023-10-19T08:51:36;4.20;;;1.00;;
54515;SDS011;40422;45.892;4.738;2023-10-19T08:54:02;1.52;;;0.68;;
54515;SDS011;40422;45.892;4.738;2023-10-19T08:56:31;1.95;;;1.00;;
54515;SDS011;40422;45.892;4.738;2023-10-19T08:58:58;2.45;;;1.10;;
54515;SDS011;40422;45.892;4.738;2023-10-19T09:01:26;1.40;;;0.90;;
54515;SDS011;40422;45.892;4.738;2023-10-19T09:03:56;2.33;;;0.82;;
54515;SDS011;40422;45.892;4.738;2023-10-19T09:06:25;4.25;;;0.90;;
54515;SDS011;40422;45.892;4.738;2023-10-19T09:08:54;2.30;;;0.70;;
54515;SDS011;40422;45.892;4.738;2023-10-19T09:11:20;1.98;;;0.90;;
54515;SDS011;40422;45.892;4.738;2023-10-19T09:13:50;1.58;;;0.68;;
54515;SDS011;40422;45.892;4.738;2023-10-19T09:16:17;2.40;;;0.90;;
54515;SDS011;40422;45.892;4.738;2023-10-19T09:18:45;4.60;;;0.90;;
54515;SDS011;40422;45.892;4.738;2023-10-19T09:21:16;4.88;;;1.42;;
54515;SDS011;40422;45.892;4.738;2023-10-19T09:23:49;2.35;;;0.70;;
54515;SDS011;40422;45.892;4.738;2023-10-19T09:26:20;3.67;;;1.02;;
54515;SDS011;40422;45.892;4.738;2023-10-19T09:28:47;4.60;;;1.00;;
54515;SDS011;40422;45.892;4.738;2023-10-19T09:31:14;4.72;;;0.93;;
54515;SDS011;40422;45.892;4.738;2023-10-19T09:33:41;2.42;;;1.08;;
54515;SDS011;40422;45.892;4.738;2023-10-19T09:36:13;2.22;;;0.68;;
54515;SDS011;40422;45.892;4.738;2023-10-19T09:41:17;4.68;;;1.20;;
54515;SDS011;40422;45.892;4.738;2023-10-19T09:43:45;4.18;;;0.95;;
54515;SDS011;40422;45.892;4.738;2023-10-19T09:46:18;2.97;;;1.00;;
54515;SDS011;40422;45.892;4.738;2023-10-19T09:48:47;6.35;;;1.08;;
54515;SDS011;40422;45.892;4.738;2023-10-19T09:51:14;5.57;;;1.27;;
54515;SDS011;40422;45.892;4.738;2023-10-19T09:53:41;2.85;;;1.25;;
54515;SDS011;40422;45.892;4.738;2023-10-19T09:56:19;2.35;;;0.88;;
54515;SDS011;40422;45.892;4.738;2023-10-19T09:58:50;2.38;;;0.70;;
54515;SDS011;40422;45.892;4.738;2023-10-19T10:01:18;3.05;;;0.90;;
54515;SDS011;40422;45.892;4.738;2023-10-19T10:03:47;3.13;;;0.93;;
54515;SDS011;40422;45.892;4.738;2023-10-19T10:06:17;2.75;;;0.80;;
54515;SDS011;40422;45.892;4.738;2023-10-19T10:08:54;3.65;;;1.40;;
54515;SDS011;40422;45.892;4.738;2023-10-19T10:11:22;2.83;;;1.30;;
54515;SDS011;40422;45.892;4.738;2023-10-19T10:13:51;3.03;;;1.10;;
54515;SDS011;40422;45.892;4.738;2023-10-19T10:16:18;2.33;;;1.05;;
54515;SDS011;40422;45.892;4.738;2023-10-19T10:18:49;4.68;;;1.10;;
54515;SDS011;40422;45.892;4.738;2023-10-19T10:26:18;1.92;;;1.00;;
54515;SDS011;40422;45.892;4.738;2023-10-19T10:29:06;2.60;;;1.30;;
54515;SDS011;40422;45.892;4.738;2023-10-19T10:31:34;2.00;;;0.90;;
54515;SDS011;40422;45.892;4.738;2023-10-19T10:34:05;2.25;;;0.82;;
54515;SDS011;40422;45.892;4.738;2023-10-19T10:39:23;3.22;;;1.50;;
54515;SDS011;40422;45.892;4.738;2023-10-19T10:41:57;4.95;;;2.00;;
54515;SDS011;40422;45.892;4.738;2023-10-19T10:47:08;7.38;;;2.95;;
54515;SDS011;40422;45.892;4.738;2023-10-19T10:49:45;8.23;;;2.97;;
54515;SDS011;40422;45.892;4.738;2023-10-19T10:55:11;2.80;;;1.50;;
54515;SDS011;40422;45.892;4.738;2023-10-19T10:57:41;6.03;;;2.40;;
54515;SDS011;40422;45.892;4.738;2023-10-19T11:00:08;2.78;;;1.60;;
54515;SDS011;40422;45.892;4.738;2023-10-19T11:02:40;3.20;;;1.60;;
54515;SDS011;40422;45.892;4.738;2023-10-19T11:05:11;2.95;;;1.30;;
54515;SDS011;40422;45.892;4.738;2023-10-19T11:07:41;2.17;;;1.23;;
54515;SDS011;40422;45.892;4.738;2023-10-19T11:10:35;2.50;;;1.33;;
54515;SDS011;40422;45.892;4.738;2023-10-19T11:13:05;3.47;;;1.40;;
54515;SDS011;40422;45.892;4.738;2023-10-19T11:15:34;2.22;;;1.15;;
54515;SDS011;40422;45.892;4.738;2023-10-19T11:18:02;3.33;;;1.30;;
54515;SDS011;40422;45.892;4.738;2023-10-19T11:20:28;3.40;;;1.40;;
54515;SDS011;40422;45.892;4.738;2023-10-19T11:22:54;1.38;;;0.98;;
54515;SDS011;40422;45.892;4.738;2023-10-19T11:25:25;2.53;;;1.10;;
54515;SDS011;40422;45.892;4.738;2023-10-19T11:27:58;1.90;;;0.80;;
54515;SDS011;40422;45.892;4.738;2023-10-19T11:32:54;3.13;;;0.93;;
54515;SDS011;40422;45.892;4.738;2023-10-19T11:35:27;2.05;;;0.90;;
54515;SDS011;40422;45.892;4.738;2023-10-19T11:38:00;1.80;;;1.00;;
54515;SDS011;40422;45.892;4.738;2023-10-19T11:40:27;3.05;;;1.10;;
54515;SDS011;40422;45.892;4.738;2023-10-19T11:42:53;4.35;;;1.35;;
54515;SDS011;40422;45.892;4.738;2023-10-19T11:45:23;3.20;;;1.08;;
54515;SDS011;40422;45.892;4.738;2023-10-19T11:47:49;2.33;;;1.10;;
54515;SDS011;40422;45.892;4.738;2023-10-19T11:50:16;2.53;;;1.35;;
54515;SDS011;40422;45.892;4.738;2023-10-19T11:52:43;3.95;;;1.40;;
54515;SDS011;40422;45.892;4.738;2023-10-19T11:55:10;3.25;;;1.30;;
54515;SDS011;40422;45.892;4.738;2023-10-19T11:57:38;4.15;;;1.40;;
54515;SDS011;40422;45.892;4.738;2023-10-19T12:00:08;3.15;;;1.30;;
54515;SDS011;40422;45.892;4.738;2023-10-19T12:02:38;4.40;;;1.48;;
54515;SDS011;40422;45.892;4.738;2023-10-19T12:05:06;2.22;;;1.23;;
54515;SDS011;40422;45.892;4.738;2023-10-19T12:07:35;6.60;;;1.52;;
54515;SDS011;40422;45.892;4.738;2023-10-19T12:10:07;3.28;;;1.35;;
54515;SDS011;40422;45.892;4.738;2023-10-19T12:12:37;3.88;;;1.20;;
54515;SDS011;40422;45.892;4.738;2023-10-19T12:15:03;4.68;;;1.67;;
54515;SDS011;40422;45.892;4.738;2023-10-19T12:17:30;3.65;;;1.60;;
54515;SDS011;40422;45.892;4.738;2023-10-19T12:19:58;4.13;;;1.48;;
54515;SDS011;40422;45.892;4.738;2023-10-19T12:22:24;5.03;;;1.80;;
54515;SDS011;40422;45.892;4.738;2023-10-19T12:24:56;2.88;;;1.52;;
54515;SDS011;40422;45.892;4.738;2023-10-19T12:27:23;3.83;;;1.70;;
54515;SDS011;40422;45.892;4.738;2023-10-19T12:29:49;4.50;;;1.73;;
54515;SDS011;40422;45.892;4.738;2023-10-19T12:32:17;4.60;;;1.55;;
54515;SDS011;40422;45.892;4.738;2023-10-19T12:34:43;3.17;;;1.40;;
54515;SDS011;40422;45.892;4.738;2023-10-19T12:37:10;6.38;;;1.70;;
54515;SDS011;40422;45.892;4.738;2023-10-19T12:39:37;6.63;;;2.17;;
54515;SDS011;40422;45.892;4.738;2023-10-19T12:42:10;5.28;;;2.40;;
54515;SDS011;40422;45.892;4.738;2023-10-19T12:44:36;7.72;;;3.13;;
54515;SDS011;40422;45.892;4.738;2023-10-19T12:47:06;7.97;;;2.97;;
54515;SDS011;40422;45.892;4.738;2023-10-19T12:49:35;6.03;;;2.20;;
54515;SDS011;40422;45.892;4.738;2023-10-19T12:52:02;6.45;;;2.08;;
54515;SDS011;40422;45.892;4.738;2023-10-19T12:54:32;4.03;;;1.70;;
54515;SDS011;40422;45.892;4.738;2023-10-19T12:57:04;4.40;;;1.73;;
54515;SDS011;40422;45.892;4.738;2023-10-19T12:59:33;5.57;;;1.80;;
54515;SDS011;40422;45.892;4.738;2023-10-19T13:02:00;5.75;;;1.67;;
54515;SDS011;40422;45.892;4.738;2023-10-19T13:04:28;1.77;;;1.20;;
54515;SDS011;40422;45.892;4.738;2023-10-19T13:06:56;3.45;;;1.58;;
54515;SDS011;40422;45.892;4.738;2023-10-19T13:09:23;8.43;;;1.95;;
54515;SDS011;40422;45.892;4.738;2023-10-19T13:11:56;4.88;;;1.48;;
54515;SDS011;40422;45.892;4.738;2023-10-19T13:14:22;2.97;;;1.30;;
54515;SDS011;40422;45.892;4.738;2023-10-19T13:16:47;5.35;;;1.73;;
54515;SDS011;40422;45.892;4.738;2023-10-19T13:19:16;5.65;;;1.60;;
54515;SDS011;40422;45.892;4.738;2023-10-19T13:21:45;4.00;;;1.90;;
54515;SDS011;40422;45.892;4.738;2023-10-19T13:24:14;5.57;;;2.08;;
54515;SDS011;40422;45.892;4.738;2023-10-19T13:26:41;2.97;;;1.50;;
54515;SDS011;40422;45.892;4.738;2023-10-19T13:29:10;4.63;;;1.70;;
54515;SDS011;40422;45.892;4.738;2023-10-19T13:31:36;5.50;;;1.55;;
54515;SDS011;40422;45.892;4.738;2023-10-19T13:34:02;5.38;;;1.80;;
54515;SDS011;40422;45.892;4.738;2023-10-19T13:36:29;5.97;;;2.15;;
54515;SDS011;40422;45.892;4.738;2023-10-19T13:38:56;4.38;;;1.52;;
54515;SDS011;40422;45.892;4.738;2023-10-19T13:41:22;3.80;;;1.40;;
54515;SDS011;40422;45.892;4.738;2023-10-19T13:43:48;4.93;;;1.65;;
54515;SDS011;40422;45.892;4.738;2023-10-19T13:46:13;4.43;;;1.52;;
54515;SDS011;40422;45.892;4.738;2023-10-19T13:48:39;3.58;;;1.50;;
54515;SDS011;40422;45.892;4.738;2023-10-19T13:51:05;2.22;;;1.20;;
54515;SDS011;40422;45.892;4.738;2023-10-19T13:53:40;3.72;;;1.50;;
54515;SDS011;40422;45.892;4.738;2023-10-19T13:56:09;4.80;;;1.40;;
54515;SDS011;40422;45.892;4.738;2023-10-19T13:58:36;5.68;;;1.40;;
54515;SDS011;40422;45.892;4.738;2023-10-19T14:01:02;3.33;;;1.50;;
54515;SDS011;40422;45.892;4.738;2023-10-19T14:03:31;8.75;;;1.40;;
54515;SDS011;40422;45.892;4.738;2023-10-19T14:05:57;5.35;;;1.45;;
54515;SDS011;40422;45.892;4.738;2023-10-19T14:08:22;3.80;;;1.15;;
54515;SDS011;40422;45.892;4.738;2023-10-19T14:10:48;5.70;;;1.30;;
54515;SDS011;40422;45.892;4.738;2023-10-19T14:13:14;5.50;;;1.42;;
54515;SDS011;40422;45.892;4.738;2023-10-19T14:15:40;3.25;;;1.23;;
54515;SDS011;40422;45.892;4.738;2023-10-19T14:18:07;4.95;;;1.75;;
54515;SDS011;40422;45.892;4.738;2023-10-19T14:20:33;4.03;;;1.30;;
54515;SDS011;40422;45.892;4.738;2023-10-19T14:22:59;3.80;;;1.17;;
54515;SDS011;40422;45.892;4.738;2023-10-19T14:25:26;2.83;;;1.27;;
54515;SDS011;40422;45.892;4.738;2023-10-19T14:27:55;5.88;;;1.77;;
54515;SDS011;40422;45.892;4.738;2023-10-19T14:30:25;6.18;;;1.45;;
54515;SDS011;40422;45.892;4.738;2023-10-19T14:32:53;7.05;;;1.60;;
54515;SDS011;40422;45.892;4.738;2023-10-19T14:35:20;4.55;;;1.50;;
54515;SDS011;40422;45.892;4.738;2023-10-19T14:37:48;2.72;;;1.40;;
54515;SDS011;40422;45.892;4.738;2023-10-19T14:40:15;5.78;;;1.48;;
54515;SDS011;40422;45.892;4.738;2023-10-19T14:42:45;6.15;;;1.40;;
54515;SDS011;40422;45.892;4.738;2023-10-19T14:45:13;3.90;;;1.30;;
54515;SDS011;40422;45.892;4.738;2023-10-19T14:47:41;3.13;;;1.05;;
54515;SDS011;40422;45.892;4.738;2023-10-19T14:50:11;3.50;;;1.30;;
54515;SDS011;40422;45.892;4.738;2023-10-19T14:52:41;5.00;;;1.23;;
54515;SDS011;40422;45.892;4.738;2023-10-19T14:55:10;3.90;;;1.35;;
54515;SDS011;40422;45.892;4.738;2023-10-19T14:57:38;4.82;;;1.30;;
54515;SDS011;40422;45.892;4.738;2023-10-19T15:00:05;5.15;;;1.33;;
54515;SDS011;40422;45.892;4.738;2023-10-19T15:02:54;4.03;;;1.40;;
54515;SDS011;40422;45.892;4.738;2023-10-19T15:05:25;3.53;;;1.20;;
54515;SDS011;40422;45.892;4.738;2023-10-19T15:07:52;3.55;;;1.20;;
54515;SDS011;40422;45.892;4.738;2023-10-19T15:10:19;4.65;;;1.30;;
54515;SDS011;40422;45.892;4.738;2023-10-19T15:12:46;4.97;;;1.20;;
54515;SDS011;40422;45.892;4.738;2023-10-19T15:15:12;5.75;;;1.25;;
54515;SDS011;40422;45.892;4.738;2023-10-19T15:17:41;6.10;;;1.55;;
54515;SDS011;40422;45.892;4.738;2023-10-19T15:20:09;4.93;;;1.42;;
54515;SDS011;40422;45.892;4.738;2023-10-19T15:22:36;3.80;;;1.20;;
54515;SDS011;40422;45.892;4.738;2023-10-19T15:25:03;3.97;;;1.08;;
54515;SDS011;40422;45.892;4.738;2023-10-19T15:27:30;4.85;;;1.35;;
54515;SDS011;40422;45.892;4.738;2023-10-19T15:29:55;6.43;;;1.42;;
54515;SDS011;40422;45.892;4.738;2023-10-19T15:32:22;4.63;;;1.23;;
54515;SDS011;40422;45.892;4.738;2023-10-19T15:34:48;6.15;;;1.70;;
54515;SDS011;40422;45.892;4.738;2023-10-19T15:37:13;4.28;;;1.27;;
54515;SDS011;40422;45.892;4.738;2023-10-19T15:39:39;3.22;;;1.13;;
54515;SDS011;40422;45.892;4.738;2023-10-19T15:42:05;7.22;;;1.40;;
54515;SDS011;40422;45.892;4.738;2023-10-19T15:44:33;5.07;;;1.05;;
54515;SDS011;40422;45.892;4.738;2023-10-19T15:46:59;4.10;;;1.15;;
54515;SDS011;40422;45.892;4.738;2023-10-19T15:49:25;5.25;;;1.25;;
54515;SDS011;40422;45.892;4.738;2023-10-19T15:51:52;4.68;;;1.08;;
54515;SDS011;40422;45.892;4.738;2023-10-19T15:54:17;2.17;;;0.80;;
54515;SDS011;40422;45.892;4.738;2023-10-19T15:56:43;3.28;;;1.20;;
54515;SDS011;40422;45.892;4.738;2023-10-19T15:59:09;4.22;;;1.20;;
54515;SDS011;40422;45.892;4.738;2023-10-19T16:01:34;2.70;;;0.98;;
54515;SDS011;40422;45.892;4.738;2023-10-19T16:04:00;3.33;;;1.02;;
54515;SDS011;40422;45.892;4.738;2023-10-19T16:06:26;5.05;;;1.40;;
54515;SDS011;40422;45.892;4.738;2023-10-19T16:08:54;6.07;;;1.23;;
54515;SDS011;40422;45.892;4.738;2023-10-19T16:11:19;4.95;;;1.20;;
54515;SDS011;40422;45.892;4.738;2023-10-19T16:13:46;6.00;;;1.10;;
54515;SDS011;40422;45.892;4.738;2023-10-19T16:16:11;4.18;;;1.25;;
54515;SDS011;40422;45.892;4.738;2023-10-19T16:18:37;8.57;;;1.10;;
54515;SDS011;40422;45.892;4.738;2023-10-19T16:21:04;4.80;;;1.20;;
54515;SDS011;40422;45.892;4.738;2023-10-19T16:23:30;5.75;;;1.27;;
54515;SDS011;40422;45.892;4.738;2023-10-19T16:26:00;5.32;;;1.10;;
54515;SDS011;40422;45.892;4.738;2023-10-19T16:28:28;4.68;;;1.10;;
54515;SDS011;40422;45.892;4.738;2023-10-19T16:30:54;3.17;;;1.00;;
54515;SDS011;40422;45.892;4.738;2023-10-19T16:33:26;2.60;;;0.98;;
54515;SDS011;40422;45.892;4.738;2023-10-19T16:35:52;3.30;;;1.00;;
54515;SDS011;40422;45.892;4.738;2023-10-19T16:38:17;2.95;;;1.10;;
54515;SDS011;40422;45.892;4.738;2023-10-19T16:40:44;4.78;;;1.13;;
54515;SDS011;40422;45.892;4.738;2023-10-19T16:43:10;3.85;;;1.00;;
54515;SDS011;40422;45.892;4.738;2023-10-19T16:45:36;2.85;;;0.90;;
54515;SDS011;40422;45.892;4.738;2023-10-19T16:48:04;4.50;;;0.90;;
54515;SDS011;40422;45.892;4.738;2023-10-19T16:50:31;6.20;;;1.02;;
54515;SDS011;40422;45.892;4.738;2023-10-19T16:52:57;4.70;;;1.27;;
54515;SDS011;40422;45.892;4.738;2023-10-19T16:55:25;3.40;;;1.10;;
54515;SDS011;40422;45.892;4.738;2023-10-19T16:57:51;2.40;;;1.00;;
54515;SDS011;40422;45.892;4.738;2023-10-19T17:00:20;3.85;;;1.20;;
54515;SDS011;40422;45.892;4.738;2023-10-19T17:02:46;4.35;;;1.00;;
54515;SDS011;40422;45.892;4.738;2023-10-19T17:05:13;2.55;;;1.10;;
54515;SDS011;40422;45.892;4.738;2023-10-19T17:07:38;3.85;;;1.20;;
54515;SDS011;40422;45.892;4.738;2023-10-19T17:10:04;3.10;;;0.90;;
54515;SDS011;40422;45.892;4.738;2023-10-19T17:12:31;4.85;;;1.30;;
54515;SDS011;40422;45.892;4.738;2023-10-19T17:14:59;3.65;;;1.20;;
54515;SDS011;40422;45.892;4.738;2023-10-19T17:17:26;3.50;;;1.08;;
54515;SDS011;40422;45.892;4.738;2023-10-19T17:19:52;4.13;;;1.13;;
54515;SDS011;40422;45.892;4.738;2023-10-19T17:22:18;8.98;;;1.40;;
54515;SDS011;40422;45.892;4.738;2023-10-19T17:24:44;5.22;;;1.20;;
54515;SDS011;40422;45.892;4.738;2023-10-19T17:27:10;4.95;;;1.25;;
54515;SDS011;40422;45.892;4.738;2023-10-19T17:29:36;5.18;;;1.20;;
54515;SDS011;40422;45.892;4.738;2023-10-19T17:32:02;5.60;;;1.13;;
54515;SDS011;40422;45.892;4.738;2023-10-19T17:34:31;3.38;;;1.17;;
54515;SDS011;40422;45.892;4.738;2023-10-19T17:37:01;4.35;;;1.30;;
54515;SDS011;40422;45.892;4.738;2023-10-19T17:39:31;5.05;;;1.42;;
54515;SDS011;40422;45.892;4.738;2023-10-19T17:41:58;5.45;;;1.30;;
54515;SDS011;40422;45.892;4.738;2023-10-19T17:44:24;2.58;;;1.08;;
54515;SDS011;40422;45.892;4.738;2023-10-19T17:46:51;3.42;;;1.02;;
54515;SDS011;40422;45.892;4.738;2023-10-19T17:49:17;4.38;;;1.50;;
54515;SDS011;40422;45.892;4.738;2023-10-19T17:51:42;3.78;;;1.33;;
54515;SDS011;40422;45.892;4.738;2023-10-19T17:54:08;4.53;;;1.40;;
54515;SDS011;40422;45.892;4.738;2023-10-19T17:56:36;4.97;;;1.30;;
54515;SDS011;40422;45.892;4.738;2023-10-19T17:59:02;4.60;;;1.30;;
54515;SDS011;40422;45.892;4.738;2023-10-19T18:01:28;4.57;;;1.40;;
54515;SDS011;40422;45.892;4.738;2023-10-19T18:03:55;3.58;;;1.15;;
54515;SDS011;40422;45.892;4.738;2023-10-19T18:06:21;4.72;;;1.40;;
54515;SDS011;40422;45.892;4.738;2023-10-19T18:08:47;5.07;;;1.40;;
54515;SDS011;40422;45.892;4.738;2023-10-19T18:11:14;4.15;;;1.20;;